Time;durP1;ratioP1;P1;durP2;ratioP2;P2;SDS_P1;SDS_P2;PMS_P1;PMS_P2;Temp;Humidity;BMP_temperature;BMP_pressure;BME280_temperature;BME280_humidity;BME280_pressure;Samples;Min_cycle;Max_cycle;Signal;HPM_P1;HPM_P2
2022/03/22 00:00:39;;;;;;;31.83;21.07;;;14.30;53.40;;;;;;5046886;28;20246;-90
2022/03/22 00:03:08;;;;;;;38.93;21.80;;;14.30;53.10;;;;;;5036689;28;20828;-91
2022/03/22 00:05:44;;;;;;;39.93;21.63;;;14.30;53.40;;;;;;5043122;28;20292;-91
2022/03/22 00:08:14;;;;;;;33.83;21.47;;;14.30;53.60;;;;;;5048761;28;20233;-90
2022/03/22 00:10:43;;;;;;;34.77;21.63;;;14.30;53.40;;;;;;5055897;28;21055;-90
2022/03/22 00:13:15;;;;;;;37.17;21.53;;;14.30;53.40;;;;;;5053550;28;20256;-88
2022/03/22 00:15:46;;;;;;;34.90;22.97;;;14.40;53.60;;;;;;5042303;28;20564;-90
2022/03/22 00:18:15;;;;;;;41.73;23.10;;;14.40;54.00;;;;;;5049513;28;20212;-91
2022/03/22 00:20:43;;;;;;;40.70;22.30;;;14.40;53.80;;;;;;5051226;28;20248;-89
2022/03/22 00:23:10;;;;;;;34.13;20.93;;;14.40;53.60;;;;;;5051243;28;20204;-90
2022/03/22 00:25:37;;;;;;;38.10;22.50;;;14.50;53.80;;;;;;5052432;28;20244;-90
2022/03/22 00:28:06;;;;;;;32.10;20.07;;;14.40;54.00;;;;;;5052671;28;20192;-90
2022/03/22 00:30:36;;;;;;;37.33;20.53;;;14.40;53.80;;;;;;5054335;28;20281;-90
2022/03/22 00:33:07;;;;;;;34.80;22.03;;;14.40;53.60;;;;;;5064437;28;20202;-91
2022/03/22 00:35:39;;;;;;;34.13;20.70;;;14.50;53.90;;;;;;5058187;28;20213;-91
2022/03/22 00:38:08;;;;;;;35.73;20.47;;;14.50;54.60;;;;;;5051538;28;20242;-90
2022/03/22 00:40:36;;;;;;;37.83;21.27;;;14.60;54.00;;;;;;5052714;28;20203;-90
2022/03/22 00:43:07;;;;;;;34.43;21.40;;;14.60;54.10;;;;;;5051511;28;20269;-90
2022/03/22 00:45:36;;;;;;;36.47;21.50;;;14.60;54.10;;;;;;5060505;28;20224;-90
2022/03/22 00:48:06;;;;;;;39.07;22.17;;;14.60;54.00;;;;;;5055718;28;20234;-91
2022/03/22 00:50:36;;;;;;;33.20;20.70;;;14.60;54.10;;;;;;5050798;28;20256;-90
2022/03/22 00:53:13;;;;;;;36.73;20.97;;;14.60;54.10;;;;;;5042876;28;20663;-89
2022/03/22 00:55:43;;;;;;;46.73;23.17;;;14.60;54.10;;;;;;5057862;28;20204;-90
2022/03/22 00:58:15;;;;;;;41.33;22.97;;;14.60;53.90;;;;;;5059871;28;20203;-90
2022/03/22 01:00:51;;;;;;;34.50;21.07;;;14.60;53.90;;;;;;5062065;28;20872;-91
2022/03/22 01:03:27;;;;;;;33.07;21.30;;;14.60;54.00;;;;;;5072271;28;20225;-92
2022/03/22 01:06:01;;;;;;;35.63;21.13;;;14.60;53.80;;;;;;5077152;28;20259;-91
2022/03/22 01:08:30;;;;;;;35.83;21.43;;;14.60;53.50;;;;;;5079297;28;20256;-91
2022/03/22 01:10:58;;;;;;;40.03;22.10;;;14.60;53.40;;;;;;5067450;28;20226;-90
2022/03/22 01:13:35;;;;;;;34.50;21.37;;;14.60;53.50;;;;;;5077650;28;20234;-90
2022/03/22 01:16:21;;;;;;;36.57;20.57;;;14.60;53.50;;;;;;5083741;28;20200;-92
2022/03/22 01:19:16;;;;;;;31.93;20.17;;;14.60;54.00;;;;;;5068425;28;20721;-91
2022/03/22 01:21:55;;;;;;;38.57;21.43;;;14.50;54.00;;;;;;5084010;28;20227;-90
2022/03/22 01:24:25;;;;;;;35.50;20.87;;;14.50;53.50;;;;;;5063584;28;20195;-93
2022/03/22 01:27:06;;;;;;;32.90;20.53;;;14.50;53.40;;;;;;5075318;28;20208;-90
2022/03/22 01:32:29;;;;;;;35.17;21.30;;;14.40;53.70;;;;;;5086322;28;20216;-90
2022/03/22 01:35:00;;;;;;;33.27;20.47;;;14.40;53.70;;;;;;5079636;28;20199;-90
2022/03/22 01:37:29;;;;;;;38.73;22.40;;;14.30;54.00;;;;;;5070966;28;20297;-90
2022/03/22 01:40:06;;;;;;;34.93;21.10;;;14.30;53.80;;;;;;5081556;28;20203;-90
2022/03/22 01:42:46;;;;;;;32.80;20.00;;;14.20;54.10;;;;;;5078886;28;20192;-90
2022/03/22 01:45:15;;;;;;;40.63;22.90;;;14.20;54.20;;;;;;5045055;28;20228;-90
2022/03/22 01:47:54;;;;;;;33.13;20.33;;;14.10;53.70;;;;;;5050597;28;20211;-90
2022/03/22 01:50:27;;;;;;;35.67;21.13;;;14.10;53.90;;;;;;5054879;28;20216;-92
2022/03/22 01:52:56;;;;;;;33.27;20.77;;;14.00;54.10;;;;;;5055235;28;20293;-91
2022/03/22 01:55:25;;;;;;;40.53;21.97;;;14.00;54.10;;;;;;5053500;28;20208;-91
2022/03/22 01:58:03;;;;;;;34.07;21.43;;;13.90;54.00;;;;;;5054608;28;20330;-91
2022/03/22 02:00:31;;;;;;;31.07;20.40;;;13.90;54.40;;;;;;5050851;28;20199;-90
2022/03/22 02:05:56;;;;;;;33.63;20.87;;;13.80;54.20;;;;;;5054324;28;20218;-91
2022/03/22 02:08:28;;;;;;;34.40;20.73;;;13.70;54.30;;;;;;5054132;28;20667;-91
2022/03/22 02:10:58;;;;;;;34.40;20.20;;;13.60;54.30;;;;;;5052515;28;20200;-91
2022/03/22 02:13:27;;;;;;;40.43;22.30;;;13.60;54.30;;;;;;5054380;28;20218;-91
2022/03/22 02:15:59;;;;;;;31.40;19.73;;;13.60;54.20;;;;;;5054002;28;20196;-91
2022/03/22 02:18:29;;;;;;;33.10;20.30;;;13.50;54.30;;;;;;5054814;28;20291;-91
2022/03/22 02:21:05;;;;;;;34.40;21.17;;;13.50;54.10;;;;;;5054372;28;20213;-91
2022/03/22 02:23:56;;;;;;;32.03;20.17;;;13.40;54.30;;;;;;5054617;28;20208;-90
2022/03/22 02:26:25;;;;;;;34.63;19.97;;;13.40;54.80;;;;;;5054083;28;20207;-91
2022/03/22 02:28:58;;;;;;;41.60;21.90;;;13.30;54.60;;;;;;5053661;28;20195;-91
2022/03/22 02:31:31;;;;;;;36.47;21.33;;;13.30;54.30;;;;;;5054383;28;20246;-90
2022/03/22 02:34:04;;;;;;;31.27;19.77;;;13.20;54.50;;;;;;5054693;28;20204;-90
2022/03/22 02:36:33;;;;;;;37.47;21.23;;;13.20;54.30;;;;;;5054282;28;20240;-90
2022/03/22 02:39:04;;;;;;;34.80;19.67;;;13.20;54.40;;;;;;5033781;28;20201;-91
2022/03/22 02:41:35;;;;;;;37.87;20.97;;;13.10;54.50;;;;;;5043980;28;20238;-91
2022/03/22 02:44:07;;;;;;;30.30;19.43;;;13.10;54.40;;;;;;5057376;28;20208;-90
2022/03/22 02:46:41;;;;;;;33.97;19.77;;;13.10;54.50;;;;;;5062817;28;20205;-91
2022/03/22 02:49:09;;;;;;;36.30;19.83;;;13.00;54.60;;;;;;5055879;28;20192;-90
2022/03/22 02:51:38;;;;;;;30.00;18.97;;;13.00;54.60;;;;;;5049850;28;20228;-91
2022/03/22 02:54:34;;;;;;;37.93;21.10;;;12.90;54.60;;;;;;5051195;28;20208;-91
2022/03/22 02:57:17;;;;;;;35.67;20.57;;;12.90;55.30;;;;;;5050152;28;20273;-91
2022/03/22 02:59:44;;;;;;;35.77;19.50;;;12.80;54.90;;;;;;5051863;28;20299;-91
2022/03/22 03:02:18;;;;;;;36.57;19.20;;;12.80;54.40;;;;;;5051817;28;20238;-90
2022/03/22 03:04:47;;;;;;;32.53;19.47;;;12.70;54.40;;;;;;5050874;28;20200;-89
2022/03/22 03:07:39;;;;;;;38.00;20.27;;;12.70;54.50;;;;;;5051988;28;20245;-91
2022/03/22 03:10:12;;;;;;;34.37;18.80;;;12.70;54.60;;;;;;5051786;28;20196;-89
2022/03/22 03:12:45;;;;;;;33.17;19.17;;;12.60;54.70;;;;;;5057069;28;20233;-91
2022/03/22 03:15:17;;;;;;;35.27;19.47;;;12.50;54.60;;;;;;5059184;28;20189;-92
2022/03/22 03:17:47;;;;;;;29.33;18.47;;;12.50;54.90;;;;;;5041885;28;20619;-89
2022/03/22 03:20:16;;;;;;;30.00;18.30;;;12.50;54.80;;;;;;5044038;28;20187;-91
2022/03/22 03:22:46;;;;;;;33.03;18.87;;;12.40;55.00;;;;;;5051186;28;20208;-90
2022/03/22 03:25:27;;;;;;;36.63;20.67;;;12.30;55.20;;;;;;5042454;28;20687;-92
2022/03/22 03:27:54;;;;;;;36.13;19.97;;;12.30;55.30;;;;;;5060495;28;20208;-90
2022/03/22 03:30:24;;;;;;;34.37;20.37;;;12.30;55.00;;;;;;5060014;28;20226;-90
2022/03/22 03:32:56;;;;;;;30.87;19.20;;;12.20;55.20;;;;;;5059582;28;20216;-91
2022/03/22 03:35:26;;;;;;;32.03;19.50;;;12.20;55.20;;;;;;5058026;28;20217;-89
2022/03/22 03:37:54;;;;;;;33.73;19.40;;;12.20;55.40;;;;;;5057057;28;20202;-90
2022/03/22 03:41:53;;;;;;;41.17;21.33;;;12.10;55.50;;;;;;5055992;28;20202;-89
2022/03/22 03:43:21;;;;;;;39.17;20.83;;;12.10;55.70;;;;;;5054501;28;20230;-90
2022/03/22 03:48:37;;;;;;;36.30;19.87;;;12.00;55.40;;;;;;5056690;28;20212;-90
2022/03/22 03:51:15;;;;;;;37.93;20.03;;;12.00;56.00;;;;;;5055197;28;20213;-89
2022/03/22 03:53:44;;;;;;;36.60;20.23;;;11.90;55.60;;;;;;5054096;28;20651;-89
2022/03/22 03:56:15;;;;;;;35.50;19.43;;;11.90;55.70;;;;;;5049467;28;20216;-90
2022/03/22 03:58:44;;;;;;;32.93;19.40;;;11.80;55.90;;;;;;5056102;28;20248;-89
2022/03/22 04:01:12;;;;;;;32.83;20.33;;;11.80;55.70;;;;;;5055524;28;20268;-89
2022/03/22 04:03:40;;;;;;;32.77;19.50;;;11.80;55.50;;;;;;5053280;28;20212;-89
2022/03/22 04:06:09;;;;;;;31.63;18.53;;;11.80;55.80;;;;;;5053453;28;20217;-90
2022/03/22 04:08:38;;;;;;;30.20;19.40;;;11.70;55.90;;;;;;5058089;28;20200;-90
2022/03/22 04:11:10;;;;;;;34.63;19.23;;;11.70;56.30;;;;;;5054442;28;20235;-90
2022/03/22 04:13:42;;;;;;;35.80;19.13;;;11.70;56.40;;;;;;5057494;28;20225;-89
2022/03/22 04:16:09;;;;;;;33.60;19.10;;;11.60;56.50;;;;;;5062612;28;20205;-91
2022/03/22 04:18:37;;;;;;;32.53;19.80;;;11.60;56.30;;;;;;5055086;28;20249;-90
2022/03/22 04:21:16;;;;;;;42.30;21.20;;;11.50;56.20;;;;;;5056465;28;20197;-90
2022/03/22 04:23:43;;;;;;;30.70;18.70;;;11.50;56.20;;;;;;5055777;28;20209;-90
2022/03/22 04:26:11;;;;;;;36.10;19.67;;;11.50;56.30;;;;;;5056884;28;20201;-92
2022/03/22 04:34:16;;;;;;;36.93;19.13;;;11.30;56.30;;;;;;5057938;28;20253;-90
2022/03/22 04:36:55;;;;;;;30.67;18.27;;;11.30;56.50;;;;;;5059679;28;20624;-91
2022/03/22 04:39:26;;;;;;;31.73;18.43;;;11.30;56.30;;;;;;5057285;28;20830;-90
2022/03/22 04:41:53;;;;;;;32.00;17.93;;;11.20;56.30;;;;;;5060534;28;20186;-90
2022/03/22 04:44:23;;;;;;;30.17;19.00;;;11.20;56.50;;;;;;5061908;28;20230;-91
2022/03/22 04:46:52;;;;;;;30.53;17.70;;;11.20;56.40;;;;;;5059655;28;20208;-90
2022/03/22 04:49:21;;;;;;;31.13;17.37;;;11.20;56.20;;;;;;5060104;28;20188;-90
2022/03/22 04:57:21;;;;;;;33.63;18.57;;;11.00;56.00;;;;;;5037468;28;20210;-90
2022/03/22 04:59:54;;;;;;;30.03;18.97;;;11.00;56.00;;;;;;5051245;28;20210;-90
2022/03/22 05:02:24;;;;;;;29.10;18.47;;;11.00;56.60;;;;;;5037767;28;20238;-89
2022/03/22 05:04:51;;;;;;;32.00;18.70;;;11.00;56.50;;;;;;5055045;28;20260;-90
2022/03/22 05:07:18;;;;;;;29.70;17.97;;;11.00;56.80;;;;;;5058381;28;20261;-90
2022/03/22 05:09:46;;;;;;;33.47;19.07;;;10.90;56.90;;;;;;5056899;28;20249;-90
2022/03/22 05:12:14;;;;;;;35.73;19.03;;;10.90;56.90;;;;;;5054109;28;20257;-90
2022/03/22 05:14:43;;;;;;;31.27;17.90;;;10.80;56.60;;;;;;5051424;28;20286;-90
2022/03/22 05:17:15;;;;;;;29.77;18.03;;;10.80;56.50;;;;;;5055382;28;20232;-90
2022/03/22 05:19:51;;;;;;;31.40;18.10;;;10.80;56.80;;;;;;5054459;28;20210;-92
2022/03/22 05:22:21;;;;;;;29.07;17.93;;;10.80;57.30;;;;;;5067961;28;20216;-90
2022/03/22 05:24:53;;;;;;;28.67;18.33;;;10.80;56.90;;;;;;5067907;28;20217;-91
2022/03/22 05:27:26;;;;;;;34.10;17.73;;;10.70;56.80;;;;;;5074424;28;20198;-92
2022/03/22 05:29:53;;;;;;;30.13;17.13;;;10.70;56.80;;;;;;5066740;28;20211;-91
2022/03/22 05:32:21;;;;;;;30.57;17.93;;;10.70;56.80;;;;;;5052636;28;20216;-90
2022/03/22 05:34:48;;;;;;;28.53;17.80;;;10.60;57.20;;;;;;5065353;28;20215;-90
2022/03/22 05:37:15;;;;;;;31.80;18.23;;;10.60;57.20;;;;;;5051522;28;20224;-90
2022/03/22 05:39:42;;;;;;;36.00;19.90;;;10.60;57.20;;;;;;5053322;28;20294;-90
2022/03/22 05:42:09;;;;;;;33.93;19.33;;;10.60;57.20;;;;;;5051962;28;20690;-90
2022/03/22 05:44:37;;;;;;;33.73;18.80;;;10.50;57.20;;;;;;5050720;28;20232;-90
2022/03/22 05:47:05;;;;;;;34.17;20.03;;;10.50;57.40;;;;;;5051626;28;20625;-90
2022/03/22 05:49:35;;;;;;;29.00;18.33;;;10.50;57.50;;;;;;5050495;28;20281;-89
2022/03/22 05:52:01;;;;;;;31.77;17.50;;;10.50;57.40;;;;;;5054154;28;20216;-90
2022/03/22 05:54:28;;;;;;;32.80;18.27;;;10.50;57.10;;;;;;5054157;28;20208;-90
2022/03/22 05:56:56;;;;;;;31.27;18.13;;;10.50;57.20;;;;;;5054518;28;20300;-91
2022/03/22 05:59:23;;;;;;;24.97;16.10;;;10.40;56.90;;;;;;5053259;28;20301;-90
2022/03/22 06:01:49;;;;;;;31.07;16.70;;;10.40;57.10;;;;;;5052945;28;20252;-92
2022/03/22 06:04:22;;;;;;;31.67;18.10;;;10.40;57.00;;;;;;5038677;28;20202;-90
2022/03/22 06:06:50;;;;;;;31.60;18.43;;;10.40;57.10;;;;;;5034025;28;20265;-92
2022/03/22 06:09:17;;;;;;;31.50;17.37;;;10.40;57.30;;;;;;5051235;28;20293;-90
2022/03/22 06:11:44;;;;;;;30.00;16.87;;;10.30;57.30;;;;;;5054069;28;20200;-91
2022/03/22 06:14:13;;;;;;;30.50;18.00;;;10.30;57.30;;;;;;5052427;28;20249;-90
2022/03/22 06:16:39;;;;;;;35.90;18.23;;;10.30;57.50;;;;;;5052429;28;20302;-89
2022/03/22 06:19:09;;;;;;;29.97;16.70;;;10.30;57.50;;;;;;5046735;28;20295;-90
2022/03/22 06:21:36;;;;;;;29.00;16.33;;;10.30;57.50;;;;;;5054044;28;20260;-90
2022/03/22 06:24:05;;;;;;;30.77;16.83;;;10.30;57.30;;;;;;5055269;28;20288;-89
2022/03/22 06:26:32;;;;;;;34.90;18.83;;;10.30;57.30;;;;;;5054422;28;20242;-91
2022/03/22 06:29:00;;;;;;;28.30;16.73;;;10.30;57.30;;;;;;5054517;28;20193;-89
2022/03/22 06:31:27;;;;;;;29.60;17.50;;;10.30;57.50;;;;;;5054487;28;20679;-88
2022/03/22 06:33:54;;;;;;;33.23;17.60;;;10.30;57.70;;;;;;5054254;28;20264;-89
2022/03/22 06:36:21;;;;;;;28.90;17.07;;;10.30;57.90;;;;;;5054235;28;20785;-89
2022/03/22 06:38:48;;;;;;;30.37;16.63;;;10.30;57.80;;;;;;5052958;28;20200;-90
2022/03/22 06:41:16;;;;;;;28.97;16.60;;;10.30;57.90;;;;;;5051766;28;20224;-90
2022/03/22 06:43:43;;;;;;;26.37;16.80;;;10.30;57.90;;;;;;5053100;28;20228;-94
2022/03/22 06:46:10;;;;;;;27.90;17.73;;;10.30;58.10;;;;;;5052762;28;20292;-91
2022/03/22 06:48:38;;;;;;;38.97;20.40;;;10.30;58.60;;;;;;5053742;28;20233;-90
2022/03/22 06:51:05;;;;;;;35.57;19.53;;;10.30;58.90;;;;;;5057978;28;20273;-89
2022/03/22 06:53:33;;;;;;;30.93;18.13;;;10.30;59.00;;;;;;5053405;28;20228;-90
2022/03/22 06:56:00;;;;;;;31.60;18.77;;;10.30;59.10;;;;;;5052226;28;20218;-89
2022/03/22 06:58:30;;;;;;;37.97;20.43;;;10.40;59.40;;;;;;5051617;28;20314;-90
2022/03/22 07:00:58;;;;;;;33.77;20.87;;;10.40;59.90;;;;;;5052238;28;20240;-89
2022/03/22 07:03:25;;;;;;;35.80;21.07;;;10.40;59.90;;;;;;5051006;28;20247;-90
2022/03/22 07:05:55;;;;;;;37.13;19.43;;;10.50;60.10;;;;;;5051858;28;20279;-92
2022/03/22 07:08:23;;;;;;;39.33;20.00;;;10.40;60.10;;;;;;5050707;28;20189;-90
2022/03/22 07:13:33;;;;;;;38.30;21.33;;;10.50;60.30;;;;;;5052726;28;20223;-89
2022/03/22 07:16:05;;;;;;;41.67;21.73;;;10.60;60.60;;;;;;5056239;28;20203;-90
2022/03/22 07:18:32;;;;;;;38.27;20.93;;;10.60;61.00;;;;;;5057489;28;20743;-90
2022/03/22 07:21:04;;;;;;;31.10;19.80;;;10.70;60.90;;;;;;5056406;28;20632;-89
2022/03/22 07:23:31;;;;;;;34.73;20.40;;;10.70;60.90;;;;;;5053101;28;20254;-90
2022/03/22 07:26:00;;;;;;;36.00;20.90;;;10.80;61.00;;;;;;5053948;28;20613;-90
2022/03/22 07:28:27;;;;;;;38.30;20.83;;;10.80;61.50;;;;;;5050101;28;20201;-89
2022/03/22 07:30:57;;;;;;;31.80;19.13;;;10.90;61.40;;;;;;5051955;28;20194;-88
2022/03/22 07:33:27;;;;;;;32.13;19.77;;;11.00;61.70;;;;;;5050015;28;20695;-89
2022/03/22 07:35:55;;;;;;;33.03;20.77;;;11.00;61.50;;;;;;5051865;28;20251;-90
2022/03/22 07:38:25;;;;;;;31.37;20.37;;;11.10;61.40;;;;;;5051709;28;20651;-89
2022/03/22 07:40:52;;;;;;;36.80;21.23;;;11.20;61.80;;;;;;5051346;28;20256;-89
2022/03/22 07:43:19;;;;;;;35.80;20.67;;;11.20;61.80;;;;;;5051470;28;20316;-89
2022/03/22 07:45:46;;;;;;;36.47;20.97;;;11.30;61.50;;;;;;5050806;28;20210;-89
2022/03/22 07:48:19;;;;;;;34.30;19.93;;;11.40;61.20;;;;;;5049253;28;20242;-90
2022/03/22 07:53:27;;;;;;;31.83;22.13;;;11.60;61.30;;;;;;5007009;28;20314;-90
2022/03/22 07:55:56;;;;;;;31.60;19.80;;;11.70;61.40;;;;;;5053804;28;20752;-89
2022/03/22 07:58:23;;;;;;;31.23;19.50;;;11.80;61.80;;;;;;5053533;28;20291;-89
2022/03/22 08:00:50;;;;;;;30.67;18.60;;;11.90;62.40;;;;;;5050895;28;20200;-90
2022/03/22 08:03:19;;;;;;;32.30;19.03;;;12.00;61.60;;;;;;5054056;28;20192;-90
2022/03/22 08:05:46;;;;;;;33.07;19.43;;;12.10;61.80;;;;;;5052401;28;20207;-91
2022/03/22 08:08:14;;;;;;;29.83;18.33;;;12.20;62.00;;;;;;5053441;28;20200;-90
2022/03/22 08:10:43;;;;;;;29.20;18.63;;;12.30;62.00;;;;;;5053457;28;20219;-90
2022/03/22 08:13:10;;;;;;;30.03;18.60;;;12.40;62.00;;;;;;5053951;28;20228;-90
2022/03/22 08:15:37;;;;;;;28.93;18.77;;;12.50;62.20;;;;;;5052581;28;20241;-90
2022/03/22 08:18:06;;;;;;;31.00;19.10;;;12.60;62.10;;;;;;5053828;28;20216;-90
2022/03/22 08:20:35;;;;;;;29.60;17.80;;;12.70;62.00;;;;;;5052654;28;20264;-91
2022/03/22 08:23:04;;;;;;;28.27;17.37;;;12.80;61.80;;;;;;5052331;28;20200;-90
2022/03/22 08:25:33;;;;;;;29.73;17.40;;;12.90;61.60;;;;;;5034443;28;20235;-90
2022/03/22 08:28:02;;;;;;;27.63;17.17;;;13.00;61.50;;;;;;5052404;28;20280;-90
2022/03/22 08:30:33;;;;;;;29.60;17.93;;;13.10;61.40;;;;;;5051648;28;20265;-92
2022/03/22 08:33:03;;;;;;;43.83;21.17;;;13.30;61.50;;;;;;5049414;28;20204;-91
2022/03/22 08:35:30;;;;;;;27.93;18.10;;;13.40;61.50;;;;;;5054214;28;20200;-93
2022/03/22 08:38:00;;;;;;;32.50;18.63;;;13.50;61.20;;;;;;5054199;28;20276;-91
2022/03/22 08:40:27;;;;;;;36.30;18.07;;;13.60;61.40;;;;;;5051921;28;20244;-91
2022/03/22 08:42:58;;;;;;;31.37;19.37;;;13.80;61.20;;;;;;5052326;28;20254;-92
2022/03/22 08:45:27;;;;;;;27.70;18.17;;;13.80;61.00;;;;;;5053469;28;20224;-91
2022/03/22 08:47:58;;;;;;;33.57;19.90;;;14.00;60.90;;;;;;5059044;28;20291;-91
2022/03/22 08:50:25;;;;;;;32.43;17.53;;;14.10;60.80;;;;;;5051418;28;20210;-91
2022/03/22 08:52:53;;;;;;;26.07;16.17;;;14.30;60.80;;;;;;5056598;28;20296;-90
2022/03/22 08:55:24;;;;;;;33.33;18.53;;;14.40;60.90;;;;;;5057344;28;20222;-93
2022/03/22 08:57:53;;;;;;;31.43;18.87;;;14.60;60.80;;;;;;5054293;28;20220;-91
2022/03/22 09:00:21;;;;;;;29.33;17.63;;;14.70;60.10;;;;;;5055880;28;20571;-91
2022/03/22 09:02:49;;;;;;;29.13;17.33;;;14.90;60.20;;;;;;5054725;28;20642;-91
2022/03/22 09:08:01;;;;;;;24.20;16.80;;;15.40;60.00;;;;;;5022789;28;20209;-90
2022/03/22 09:10:31;;;;;;;19.30;13.67;;;15.60;59.70;;;;;;5052119;28;20200;-91
2022/03/22 09:12:59;;;;;;;26.90;16.77;;;15.80;59.20;;;;;;5052297;28;20891;-90
2022/03/22 09:15:27;;;;;;;25.57;15.30;;;16.00;59.30;;;;;;5035181;28;20235;-90
2022/03/22 09:17:55;;;;;;;30.47;15.73;;;16.20;58.40;;;;;;5033831;28;20280;-90
2022/03/22 09:20:22;;;;;;;22.50;14.87;;;16.40;58.00;;;;;;5034107;28;20296;-90
2022/03/22 09:22:51;;;;;;;24.63;15.40;;;16.60;57.90;;;;;;5038331;28;20206;-90
2022/03/22 09:25:20;;;;;;;23.70;14.83;;;16.80;57.40;;;;;;5051850;28;20210;-90
2022/03/22 09:27:49;;;;;;;23.43;15.17;;;17.00;57.00;;;;;;5053509;28;20680;-90
2022/03/22 09:30:19;;;;;;;22.27;15.13;;;17.10;56.70;;;;;;5052972;28;20554;-90
2022/03/22 09:32:47;;;;;;;23.13;14.20;;;17.30;56.40;;;;;;5052714;28;20296;-91
2022/03/22 09:38:01;;;;;;;21.77;14.10;;;17.60;55.90;;;;;;5040697;28;20605;-91
2022/03/22 09:40:29;;;;;;;26.20;15.30;;;17.80;56.00;;;;;;5053838;28;20208;-90
2022/03/22 09:43:07;;;;;;;25.83;15.50;;;18.00;55.70;;;;;;5050584;28;20212;-90
2022/03/22 09:45:39;;;;;;;24.67;15.80;;;18.10;54.90;;;;;;5053966;28;20218;-90
2022/03/22 09:48:08;;;;;;;29.80;15.90;;;18.30;55.20;;;;;;5054054;28;20212;-90
2022/03/22 09:53:21;;;;;;;24.10;14.73;;;18.60;54.90;;;;;;5051861;28;20301;-91
2022/03/22 09:55:49;;;;;;;21.73;14.70;;;18.70;54.60;;;;;;5052226;28;20660;-90
2022/03/22 09:58:20;;;;;;;23.93;14.80;;;18.90;54.60;;;;;;5052048;28;20216;-91
2022/03/22 10:00:47;;;;;;;23.00;15.17;;;19.00;54.40;;;;;;5052835;28;20940;-91
2022/03/22 10:03:20;;;;;;;25.17;15.67;;;19.20;54.20;;;;;;5052340;28;20203;-91
2022/03/22 10:06:00;;;;;;;21.77;14.07;;;19.40;53.40;;;;;;5063128;28;20204;-91
2022/03/22 10:08:31;;;;;;;19.03;13.93;;;19.60;53.10;;;;;;5050387;28;20200;-90
2022/03/22 10:11:01;;;;;;;20.93;14.97;;;19.80;53.40;;;;;;5060201;28;20215;-90
2022/03/22 10:13:33;;;;;;;24.47;14.67;;;19.90;53.30;;;;;;5056799;28;20239;-91
2022/03/22 10:16:06;;;;;;;24.30;14.53;;;20.20;52.80;;;;;;5054523;28;21029;-90
2022/03/22 10:18:36;;;;;;;21.90;15.37;;;20.40;52.90;;;;;;5058055;28;20283;-90
2022/03/22 10:21:07;;;;;;;20.97;14.23;;;20.60;52.60;;;;;;5056195;28;20648;-92
2022/03/22 10:23:35;;;;;;;25.47;14.53;;;20.80;53.30;;;;;;5063633;28;20632;-92
2022/03/22 10:26:04;;;;;;;22.87;15.00;;;21.00;52.70;;;;;;5061132;28;20629;-90
2022/03/22 10:28:34;;;;;;;25.30;16.37;;;21.20;52.00;;;;;;5046288;28;20201;-90
2022/03/22 10:31:05;;;;;;;27.93;17.30;;;21.30;52.30;;;;;;5043484;28;20288;-92
2022/03/22 10:33:33;;;;;;;20.77;13.97;;;21.50;52.10;;;;;;5050941;28;20202;-91
2022/03/22 10:36:00;;;;;;;26.63;16.23;;;21.70;52.10;;;;;;5052875;28;20220;-92
2022/03/22 10:38:29;;;;;;;26.13;16.03;;;21.90;52.30;;;;;;5047107;28;20231;-91
2022/03/22 10:40:56;;;;;;;22.20;13.93;;;22.10;51.40;;;;;;5035753;28;20277;-92
2022/03/22 10:43:27;;;;;;;20.90;15.00;;;22.30;50.70;;;;;;5050456;28;20200;-91
2022/03/22 10:46:00;;;;;;;23.13;14.27;;;22.40;50.60;;;;;;5048278;28;20669;-90
2022/03/22 10:48:33;;;;;;;20.63;14.07;;;22.60;50.20;;;;;;5049801;28;20208;-93
2022/03/22 10:51:01;;;;;;;21.23;14.47;;;22.80;50.40;;;;;;5047666;28;20212;-90
2022/03/22 10:53:30;;;;;;;21.07;14.70;;;22.90;50.50;;;;;;5044432;28;20208;-91
2022/03/22 10:55:58;;;;;;;22.60;14.70;;;23.10;50.20;;;;;;5047018;28;20200;-91
2022/03/22 10:58:27;;;;;;;27.03;15.27;;;23.30;50.10;;;;;;5048025;28;20400;-90
2022/03/22 11:00:57;;;;;;;19.70;13.73;;;23.50;49.60;;;;;;5049958;28;20196;-91
2022/03/22 11:03:26;;;;;;;19.07;13.13;;;23.60;49.60;;;;;;5050333;28;20286;-91
2022/03/22 11:05:55;;;;;;;28.13;14.90;;;23.80;49.70;;;;;;5047159;28;20212;-89
2022/03/22 11:08:24;;;;;;;22.33;13.97;;;23.90;49.30;;;;;;5043759;28;20648;-92
2022/03/22 11:10:54;;;;;;;18.30;12.33;;;24.10;49.30;;;;;;5050416;28;20232;-92
2022/03/22 11:13:21;;;;;;;21.83;13.63;;;24.30;48.90;;;;;;5051805;28;20648;-93
2022/03/22 11:15:51;;;;;;;19.03;13.03;;;24.50;48.60;;;;;;5049568;28;20649;-90
2022/03/22 11:18:21;;;;;;;21.00;13.13;;;24.70;48.10;;;;;;5052955;28;20192;-90
2022/03/22 11:20:52;;;;;;;16.13;12.07;;;24.80;47.30;;;;;;5050174;28;20295;-90
2022/03/22 11:23:21;;;;;;;18.80;13.87;;;25.00;47.30;;;;;;5048347;28;20252;-90
2022/03/22 11:25:49;;;;;;;17.87;12.23;;;25.10;47.40;;;;;;5036138;28;20629;-91
2022/03/22 11:28:20;;;;;;;21.73;14.33;;;25.30;47.40;;;;;;5032118;28;20740;-91
2022/03/22 11:36:21;;;;;;;15.57;11.47;;;25.60;45.10;;;;;;5055236;28;20370;-89
2022/03/22 11:38:53;;;;;;;16.07;11.57;;;25.80;46.20;;;;;;5052146;28;20192;-87
2022/03/22 11:44:11;;;;;;;18.07;11.17;;;26.00;45.90;;;;;;5050286;28;20211;-94
2022/03/22 11:46:39;;;;;;;19.67;12.07;;;26.20;45.90;;;;;;5036749;28;20192;-92
2022/03/22 11:49:20;;;;;;;17.13;11.87;;;26.30;46.20;;;;;;5053105;28;20200;-92
2022/03/22 11:51:56;;;;;;;17.10;11.27;;;26.50;45.60;;;;;;5051783;28;20207;-93
2022/03/22 11:54:25;;;;;;;14.63;11.00;;;26.60;45.40;;;;;;5050313;28;20591;-93
2022/03/22 11:56:59;;;;;;;20.37;12.57;;;26.80;45.60;;;;;;5048546;28;20523;-93
2022/03/22 11:59:27;;;;;;;17.33;12.00;;;26.90;44.50;;;;;;5048136;28;20211;-93
2022/03/22 12:01:57;;;;;;;18.98;11.63;;;27.10;44.60;;;;;;5051155;28;20200;-94
2022/03/22 12:04:38;;;;;;;16.50;12.10;;;27.20;44.10;;;;;;5050218;28;20703;-95
2022/03/22 12:07:10;;;;;;;16.27;11.68;;;27.30;42.80;;;;;;5051769;28;20216;-92
2022/03/22 12:09:40;;;;;;;16.23;12.05;;;27.40;44.00;;;;;;5037058;28;20200;-95
2022/03/22 12:12:21;;;;;;;15.07;11.70;;;27.50;43.10;;;;;;5052504;28;21137;-94
2022/03/22 12:14:49;;;;;;;15.07;11.73;;;27.60;43.00;;;;;;5054012;28;20307;-94
2022/03/22 12:17:28;;;;;;;18.25;12.85;;;27.80;43.50;;;;;;5036590;28;20306;-92
2022/03/22 12:20:00;;;;;;;18.27;11.88;;;27.80;42.40;;;;;;5052474;28;20204;-94
2022/03/22 12:22:28;;;;;;;19.02;12.95;;;27.90;42.00;;;;;;5052909;28;20857;-95
2022/03/22 12:25:00;;;;;;;20.27;12.23;;;28.00;42.50;;;;;;5052697;28;20196;-94
2022/03/22 12:27:49;;;;;;;20.58;12.73;;;28.10;41.90;;;;;;5050794;28;20309;-93
2022/03/22 12:30:20;;;;;;;15.90;11.52;;;28.20;40.50;;;;;;5033290;28;20205;-94
2022/03/22 12:32:51;;;;;;;17.00;11.90;;;28.30;41.40;;;;;;5036501;28;20750;-93
2022/03/22 12:35:20;;;;;;;15.70;12.18;;;28.30;41.10;;;;;;5039067;28;20238;-93
2022/03/22 12:38:03;;;;;;;20.92;14.07;;;28.40;41.50;;;;;;5038051;28;20226;-93
2022/03/22 12:40:32;;;;;;;20.02;12.90;;;28.50;41.00;;;;;;5045626;28;20296;-94
2022/03/22 12:43:00;;;;;;;19.13;12.77;;;28.60;40.40;;;;;;5047480;28;20242;-95
2022/03/22 12:45:28;;;;;;;18.25;12.23;;;28.70;40.50;;;;;;5061829;28;20250;-93
2022/03/22 12:47:57;;;;;;;17.33;12.10;;;28.70;40.30;;;;;;5063999;28;20571;-96
2022/03/22 12:50:27;;;;;;;14.45;11.93;;;28.80;39.90;;;;;;5059735;28;20224;-94
2022/03/22 12:53:27;;;;;;;17.80;12.18;;;28.90;39.40;;;;;;5071946;28;20224;-94
2022/03/22 12:55:55;;;;;;;18.00;12.77;;;29.00;39.50;;;;;;5067113;28;20246;-92
2022/03/22 12:58:30;;;;;;;16.20;11.85;;;29.00;38.70;;;;;;5074757;28;20203;-93
2022/03/22 13:01:09;;;;;;;16.42;11.20;;;29.10;38.00;;;;;;5075121;28;20203;-94
2022/03/22 13:03:42;;;;;;;16.92;10.35;;;29.20;38.30;;;;;;5072966;28;20199;-95
2022/03/22 13:06:11;;;;;;;13.32;9.38;;;29.20;38.80;;;;;;5072510;28;20197;-96
2022/03/22 13:11:29;;;;;;;11.75;8.68;;;29.40;37.00;;;;;;5056833;28;21004;-94
2022/03/22 13:16:42;;;;;;;16.05;10.00;;;29.50;36.50;;;;;;5055749;28;20239;-93
2022/03/22 13:19:24;;;;;;;12.48;8.60;;;29.50;36.00;;;;;;5054707;28;20295;-94
2022/03/22 13:21:54;;;;;;;12.95;8.32;;;29.60;36.70;;;;;;5055706;28;20219;-92
2022/03/22 13:24:24;;;;;;;15.15;8.88;;;29.60;36.10;;;;;;5052792;28;20197;-93
2022/03/22 13:29:38;;;;;;;13.45;8.32;;;29.70;35.60;;;;;;5048844;28;20200;-94
2022/03/22 13:32:07;;;;;;;13.88;8.25;;;29.80;35.50;;;;;;5058289;28;20234;-94
2022/03/22 13:34:36;;;;;;;13.25;8.93;;;29.80;35.50;;;;;;5068144;28;20227;-95